createdAt,value
2019-01-19T00:01:31.072Z,4.97
2019-01-19T00:04:14.163Z,5.27
2019-01-19T00:06:56.814Z,6.72
2019-01-19T00:09:42.026Z,5.73
2019-01-19T00:12:27.424Z,4.40
2019-01-19T00:15:10.995Z,4.00
2019-01-19T00:17:54.678Z,5.57
2019-01-19T00:20:37.482Z,6.20
2019-01-19T00:23:20.547Z,7.00
2019-01-19T00:26:03.358Z,15.43
2019-01-19T00:28:45.870Z,34.40
2019-01-19T00:31:28.589Z,15.33
2019-01-19T00:34:12.155Z,10.37
2019-01-19T00:36:55.614Z,7.90
2019-01-19T00:39:40.004Z,6.58
2019-01-19T00:42:23.295Z,5.80
2019-01-19T00:45:06.543Z,9.07
2019-01-19T00:47:49.917Z,6.70
2019-01-19T00:50:34.053Z,8.00
2019-01-19T00:53:18.966Z,5.57
2019-01-19T00:56:03.733Z,7.17
2019-01-19T00:58:46.624Z,6.08
2019-01-19T01:01:30.031Z,3.30
2019-01-19T01:04:16.605Z,6.40
2019-01-19T01:07:00.006Z,5.70
2019-01-19T01:09:45.467Z,4.70
2019-01-19T01:12:29.063Z,6.00
2019-01-19T01:15:13.981Z,6.47
2019-01-19T01:17:56.676Z,4.73
2019-01-19T01:20:41.170Z,3.63
2019-01-19T01:23:24.612Z,7.00
2019-01-19T01:26:09.900Z,4.73
2019-01-19T01:28:52.618Z,4.73
2019-01-19T01:31:37.776Z,5.57
2019-01-19T01:34:23.161Z,9.83
2019-01-19T01:37:06.750Z,7.53
2019-01-19T01:39:50.325Z,6.53
2019-01-19T01:42:33.809Z,6.27
2019-01-19T01:45:17.260Z,5.33
2019-01-19T01:48:00.017Z,5.53
2019-01-19T01:50:43.402Z,8.30
2019-01-19T01:53:27.216Z,5.63
2019-01-19T01:56:10.629Z,8.60
2019-01-19T01:58:53.816Z,4.10
2019-01-19T02:01:36.933Z,6.37
2019-01-19T02:04:20.215Z,5.93
2019-01-19T02:07:04.430Z,5.77
2019-01-19T02:09:48.678Z,6.05
2019-01-19T02:12:31.670Z,4.37
2019-01-19T02:15:14.577Z,5.60
2019-01-19T02:17:58.568Z,5.70
2019-01-19T02:20:41.972Z,5.93
2019-01-19T02:23:25.403Z,6.00
2019-01-19T02:26:10.706Z,7.40
2019-01-19T02:28:55.135Z,6.73
2019-01-19T02:31:37.846Z,6.50
2019-01-19T02:34:21.163Z,8.03
2019-01-19T02:37:04.613Z,7.03
2019-01-19T02:39:49.039Z,6.57
2019-01-19T02:42:32.112Z,5.57
2019-01-19T02:45:15.136Z,7.13
2019-01-19T02:47:57.985Z,6.83
2019-01-19T02:50:40.913Z,8.03
2019-01-19T02:53:26.093Z,6.23
2019-01-19T02:56:11.004Z,5.43
2019-01-19T02:58:57.728Z,5.33
2019-01-19T03:01:40.314Z,6.40
2019-01-19T03:04:26.009Z,8.73
2019-01-19T03:07:08.877Z,8.10
2019-01-19T03:09:52.121Z,6.30
2019-01-19T03:12:34.827Z,6.00
2019-01-19T03:15:17.397Z,8.00
2019-01-19T03:18:01.196Z,8.17
2019-01-19T03:20:43.946Z,5.83
2019-01-19T03:23:26.847Z,7.77
2019-01-19T03:26:11.398Z,5.87
2019-01-19T03:28:54.868Z,5.53
2019-01-19T03:34:22.704Z,6.97
2019-01-19T03:37:05.437Z,5.90
2019-01-19T03:39:48.683Z,5.03
2019-01-19T03:42:31.377Z,7.13
2019-01-19T03:45:14.678Z,5.70
2019-01-19T03:47:58.033Z,7.07
2019-01-19T03:50:41.505Z,6.00
2019-01-19T03:53:27.775Z,7.20
2019-01-19T03:56:11.471Z,7.33
2019-01-19T03:58:54.305Z,4.93
2019-01-19T04:01:39.772Z,6.50
2019-01-19T04:04:49.203Z,6.20
2019-01-19T04:07:31.779Z,7.47
2019-01-19T04:10:14.434Z,7.93
2019-01-19T04:12:57.334Z,6.57
2019-01-19T04:15:40.682Z,6.30
2019-01-19T04:18:25.143Z,6.63
2019-01-19T04:21:08.001Z,7.23
2019-01-19T04:23:52.298Z,6.70
2019-01-19T04:26:35.456Z,6.00
2019-01-19T04:29:18.501Z,8.47
2019-01-19T04:32:01.788Z,9.60
2019-01-19T04:34:44.692Z,6.63
2019-01-19T04:37:28.182Z,6.60
2019-01-19T04:40:12.439Z,5.03
2019-01-19T04:42:55.566Z,4.87
2019-01-19T04:45:38.180Z,5.30
2019-01-19T04:48:22.636Z,5.73
2019-01-19T04:51:06.540Z,6.13
2019-01-19T04:53:51.581Z,7.30
2019-01-19T04:56:35.034Z,8.43
2019-01-19T04:59:17.835Z,5.57
2019-01-19T05:02:00.877Z,7.80
2019-01-19T05:04:45.123Z,6.70
2019-01-19T05:07:28.510Z,7.07
2019-01-19T05:10:11.904Z,6.07
2019-01-19T05:12:56.662Z,7.23
2019-01-19T05:15:39.592Z,7.63
2019-01-19T05:18:22.966Z,8.07
2019-01-19T05:21:06.701Z,5.83
2019-01-19T05:23:49.628Z,7.87
2019-01-19T05:26:32.840Z,7.97
2019-01-19T05:29:15.772Z,8.07
2019-01-19T05:31:58.476Z,6.70
2019-01-19T05:34:43.495Z,8.13
2019-01-19T05:37:26.696Z,8.23
2019-01-19T05:40:09.386Z,5.60
2019-01-19T05:42:52.892Z,6.73
2019-01-19T05:45:36.089Z,7.33
2019-01-19T05:48:19.374Z,7.30
2019-01-19T05:51:04.264Z,7.70
2019-01-19T05:53:46.907Z,10.47
2019-01-19T05:56:31.332Z,11.70
2019-01-19T05:59:14.193Z,15.47
2019-01-19T06:01:57.425Z,13.57
2019-01-19T06:04:40.397Z,13.90
2019-01-19T06:07:23.596Z,11.70
2019-01-19T06:10:06.593Z,15.00
2019-01-19T06:12:49.383Z,10.70
2019-01-19T06:15:33.301Z,9.63
2019-01-19T06:18:16.210Z,13.20
2019-01-19T06:21:00.102Z,12.03
2019-01-19T06:23:42.908Z,7.50
2019-01-19T06:26:25.919Z,7.63
2019-01-19T06:29:09.379Z,7.67
2019-01-19T06:31:53.028Z,8.33
2019-01-19T06:34:38.229Z,10.23
2019-01-19T06:37:21.261Z,5.67
2019-01-19T06:40:04.423Z,6.33
2019-01-19T06:42:47.279Z,6.17
2019-01-19T06:45:29.756Z,8.83
2019-01-19T06:48:12.436Z,10.65
2019-01-19T06:50:57.003Z,9.57
2019-01-19T06:53:42.156Z,9.97
2019-01-19T06:56:27.384Z,10.93
2019-01-19T06:59:17.316Z,7.70
2019-01-19T07:01:56.584Z,7.77
2019-01-19T07:04:39.642Z,11.80
2019-01-19T07:07:24.637Z,10.03
2019-01-19T07:10:09.682Z,9.40
2019-01-19T07:12:53.064Z,8.30
2019-01-19T07:15:35.602Z,8.43
2019-01-19T07:18:21.135Z,8.83
2019-01-19T07:21:04.066Z,9.23
2019-01-19T07:23:48.209Z,12.73
2019-01-19T07:26:32.039Z,10.10
2019-01-19T07:29:17.136Z,11.87
2019-01-19T07:32:02.572Z,11.40
2019-01-19T07:34:45.168Z,9.40
2019-01-19T07:37:29.235Z,10.23
2019-01-19T07:40:11.914Z,10.13
2019-01-19T07:43:01.271Z,12.85
2019-01-19T07:46:06.311Z,7.53
2019-01-19T07:48:49.309Z,11.60
2019-01-19T07:51:32.112Z,16.43
2019-01-19T07:54:15.999Z,9.53
2019-01-19T07:57:02.516Z,12.97
2019-01-19T07:59:45.721Z,15.93
2019-01-19T08:02:28.736Z,14.93
2019-01-19T08:05:12.223Z,12.37
2019-01-19T08:07:55.178Z,11.67
2019-01-19T08:10:38.320Z,15.97
2019-01-19T08:13:21.047Z,14.60
2019-01-19T08:16:03.988Z,16.17
2019-01-19T08:21:29.442Z,16.07
2019-01-19T08:24:12.296Z,16.67
2019-01-19T08:26:55.649Z,17.43
2019-01-19T08:29:39.264Z,16.10
2019-01-19T08:32:23.182Z,13.60
2019-01-19T08:35:07.961Z,17.52
2019-01-19T08:37:50.869Z,17.17
2019-01-19T08:40:33.626Z,17.20
2019-01-19T08:46:21.276Z,13.00
2019-01-19T08:49:06.600Z,15.80
2019-01-19T08:51:49.371Z,13.70
2019-01-19T08:54:34.384Z,15.93
2019-01-19T08:57:17.740Z,18.63
2019-01-19T09:00:00.688Z,21.17
2019-01-19T09:02:46.282Z,19.20
2019-01-19T09:05:29.333Z,23.87
2019-01-19T09:08:12.901Z,23.03
2019-01-19T09:10:55.489Z,17.40
2019-01-19T09:13:39.578Z,21.40
2019-01-19T09:16:24.665Z,17.07
2019-01-19T09:18:56.185Z,21.30
2019-01-19T09:21:46.614Z,24.63
2019-01-19T09:24:30.346Z,20.43
2019-01-19T09:27:17.005Z,18.07
2019-01-19T09:30:00.238Z,15.90
2019-01-19T09:32:43.259Z,20.37
2019-01-19T09:35:25.954Z,13.13
2019-01-19T09:38:10.585Z,14.67
2019-01-19T09:40:53.689Z,17.20
2019-01-19T09:43:36.823Z,14.47
2019-01-19T09:46:20.707Z,14.67
2019-01-19T09:49:03.996Z,24.30
2019-01-19T09:51:48.361Z,22.13
2019-01-19T09:54:33.474Z,18.80
2019-01-19T09:57:17.529Z,14.83
2019-01-19T10:00:02.213Z,61.07
2019-01-19T10:02:47.461Z,25.87
2019-01-19T10:05:33.260Z,15.53
2019-01-19T10:08:15.880Z,17.07
2019-01-19T10:11:00.993Z,24.27
2019-01-19T10:13:44.158Z,18.47
2019-01-19T10:16:28.780Z,26.13
2019-01-19T10:19:11.638Z,20.70
2019-01-19T10:21:55.226Z,16.23
2019-01-19T10:24:38.160Z,14.93
2019-01-19T10:27:23.685Z,16.07
2019-01-19T10:30:06.270Z,19.17
2019-01-19T10:32:51.207Z,22.33
2019-01-19T10:35:36.410Z,28.70
2019-01-19T10:38:19.960Z,19.17
2019-01-19T10:41:02.685Z,16.43
2019-01-19T10:43:47.484Z,15.07
2019-01-19T10:46:30.937Z,19.13
2019-01-19T10:49:16.085Z,17.53
2019-01-19T10:51:59.610Z,22.77
2019-01-19T10:54:44.498Z,19.17
2019-01-19T10:57:28.226Z,16.90
2019-01-19T11:00:11.407Z,21.45
2019-01-19T11:02:54.187Z,28.63
2019-01-19T11:05:39.352Z,17.73
2019-01-19T11:08:24.028Z,25.00
2019-01-19T11:11:10.964Z,17.97
2019-01-19T11:13:54.537Z,17.00
2019-01-19T11:16:39.167Z,20.05
2019-01-19T11:19:24.376Z,21.60
2019-01-19T11:22:09.318Z,21.30
2019-01-19T11:24:52.682Z,17.53
2019-01-19T11:27:36.118Z,16.73
2019-01-19T11:30:19.001Z,14.70
2019-01-19T11:33:01.885Z,16.23
2019-01-19T11:35:45.803Z,17.50
2019-01-19T11:38:31.492Z,17.47
2019-01-19T11:41:14.623Z,14.90
2019-01-19T11:43:57.861Z,17.10
2019-01-19T11:46:41.882Z,20.83
2019-01-19T11:49:27.483Z,19.63
2019-01-19T11:52:10.501Z,20.53
2019-01-19T11:54:53.909Z,17.20
2019-01-19T11:57:36.949Z,25.20
2019-01-19T12:00:19.456Z,18.17
2019-01-19T12:03:03.364Z,16.03
2019-01-19T12:05:46.820Z,21.63
2019-01-19T12:08:30.049Z,18.37
2019-01-19T12:11:12.971Z,15.25
2019-01-19T12:13:56.693Z,16.03
2019-01-19T12:16:39.601Z,18.80
2019-01-19T12:19:22.519Z,15.87
2019-01-19T12:22:05.475Z,17.23
2019-01-19T12:24:48.098Z,18.57
2019-01-19T12:27:33.111Z,15.43
2019-01-19T12:30:19.369Z,18.80
2019-01-19T12:33:02.819Z,18.67
2019-01-19T12:35:46.402Z,16.23
2019-01-19T12:38:29.726Z,19.40
2019-01-19T12:41:13.059Z,15.93
2019-01-19T12:43:56.101Z,18.47
2019-01-19T12:46:39.508Z,18.90
2019-01-19T12:49:24.814Z,22.27
2019-01-19T12:52:09.715Z,23.03
2019-01-19T12:54:54.725Z,19.60
2019-01-19T12:57:39.510Z,18.00
2019-01-19T13:00:22.784Z,24.67
2019-01-19T13:03:06.411Z,21.20
2019-01-19T13:05:49.150Z,19.67
2019-01-19T13:08:34.519Z,22.47
2019-01-19T13:11:18.166Z,18.37
2019-01-19T13:14:03.420Z,22.42
2019-01-19T13:16:46.366Z,18.17
2019-01-19T13:19:27.972Z,22.03
2019-01-19T13:22:11.242Z,21.27
2019-01-19T13:24:54.371Z,20.70
2019-01-19T13:27:39.340Z,19.70
2019-01-19T13:30:22.056Z,18.13
2019-01-19T13:33:05.361Z,22.53
2019-01-19T13:35:48.913Z,24.15
2019-01-19T13:38:31.828Z,59.30
2019-01-19T13:41:14.810Z,119.72
2019-01-19T13:43:57.999Z,23.63
2019-01-19T13:46:41.490Z,22.53
2019-01-19T13:49:24.534Z,19.93
2019-01-19T13:52:07.118Z,20.67
2019-01-19T13:54:53.752Z,19.97
2019-01-19T13:57:36.457Z,20.48
2019-01-19T14:00:20.975Z,18.10
2019-01-19T14:03:04.476Z,23.07
2019-01-19T14:05:49.216Z,22.23
2019-01-19T14:08:32.675Z,22.37
2019-01-19T14:11:17.659Z,19.53
2019-01-19T14:14:01.022Z,18.33
2019-01-19T14:16:43.631Z,19.03
2019-01-19T14:19:27.764Z,20.20
2019-01-19T14:22:12.597Z,22.37
2019-01-19T14:24:56.626Z,20.60
2019-01-19T14:27:42.224Z,20.70
2019-01-19T14:30:24.843Z,25.53
2019-01-19T14:33:07.818Z,23.35
2019-01-19T14:35:52.042Z,22.67
2019-01-19T14:38:37.515Z,29.47
2019-01-19T14:41:20.671Z,21.80
2019-01-19T14:44:03.613Z,27.23
2019-01-19T14:46:46.468Z,25.37
2019-01-19T14:49:29.248Z,23.92
2019-01-19T14:52:13.244Z,20.60
2019-01-19T14:54:58.402Z,24.63
2019-01-19T14:57:42.101Z,27.13
2019-01-19T15:00:25.766Z,22.73
2019-01-19T15:03:08.639Z,21.73
2019-01-19T15:05:54.012Z,22.93
2019-01-19T15:08:38.992Z,19.23
2019-01-19T15:11:23.938Z,26.53
2019-01-19T15:14:06.842Z,26.37
2019-01-19T15:16:51.557Z,21.07
2019-01-19T15:19:34.305Z,20.70
2019-01-19T15:22:17.276Z,23.03
2019-01-19T15:25:00.263Z,25.62
2019-01-19T15:27:43.729Z,24.03
2019-01-19T15:30:27.171Z,22.67
2019-01-19T15:33:12.255Z,24.23
2019-01-19T15:35:55.570Z,23.60
2019-01-19T15:38:38.537Z,23.53
2019-01-19T15:41:21.233Z,25.27
2019-01-19T15:44:07.077Z,24.93
2019-01-19T15:46:52.190Z,24.47
2019-01-19T15:49:39.001Z,24.60
2019-01-19T15:52:25.229Z,23.50
2019-01-19T15:55:08.236Z,22.90
2019-01-19T15:57:51.053Z,23.93
2019-01-19T16:00:34.080Z,23.17
2019-01-19T16:03:16.619Z,23.47
2019-01-19T16:06:01.834Z,27.83
2019-01-19T16:08:45.169Z,20.90
2019-01-19T16:11:28.096Z,27.90
2019-01-19T16:14:11.514Z,23.47
2019-01-19T16:17:21.019Z,27.55
2019-01-19T16:20:04.014Z,27.77
2019-01-19T16:22:49.555Z,22.50
2019-01-19T16:25:32.295Z,26.77
2019-01-19T16:28:17.064Z,21.60
2019-01-19T16:31:02.356Z,25.37
2019-01-19T16:33:45.797Z,26.93
2019-01-19T16:36:28.631Z,30.07
2019-01-19T16:39:13.447Z,26.87
2019-01-19T16:41:58.608Z,26.13
2019-01-19T16:44:43.360Z,24.70
2019-01-19T16:47:26.734Z,25.60
2019-01-19T16:50:10.561Z,24.33
2019-01-19T16:52:53.588Z,29.30
2019-01-19T16:55:39.576Z,29.07
2019-01-19T16:58:25.466Z,27.87
2019-01-19T17:01:09.006Z,28.30
2019-01-19T17:03:52.865Z,28.53
2019-01-19T17:06:37.826Z,28.33
2019-01-19T17:09:20.518Z,29.25
2019-01-19T17:12:05.478Z,29.40
2019-01-19T17:14:48.225Z,29.33
2019-01-19T17:17:33.616Z,29.57
2019-01-19T17:20:16.325Z,28.87
2019-01-19T17:23:01.702Z,35.77
2019-01-19T17:25:44.969Z,35.00
2019-01-19T17:28:28.152Z,30.87
2019-01-19T17:31:11.366Z,32.90
2019-01-19T17:33:58.194Z,33.13
2019-01-19T17:36:41.266Z,33.53
2019-01-19T17:39:24.714Z,33.20
2019-01-19T17:42:09.157Z,32.57
2019-01-19T17:44:53.546Z,32.87
2019-01-19T17:47:36.389Z,32.03
2019-01-19T17:50:19.711Z,33.93
2019-01-19T17:53:02.439Z,30.00
2019-01-19T17:55:45.474Z,37.53
2019-01-19T17:58:29.009Z,35.03
2019-01-19T18:01:14.523Z,31.17
2019-01-19T18:03:58.096Z,34.47
2019-01-19T18:06:40.786Z,34.43
2019-01-19T18:09:24.088Z,29.00
2019-01-19T18:12:07.190Z,37.28
2019-01-19T18:14:50.128Z,34.90
2019-01-19T18:17:33.200Z,37.43
2019-01-19T18:20:16.134Z,31.50
2019-01-19T18:22:58.846Z,35.23
2019-01-19T18:25:42.973Z,34.63
2019-01-19T18:28:26.705Z,39.33
2019-01-19T18:31:10.926Z,34.97
2019-01-19T18:33:53.910Z,31.83
2019-01-19T18:36:37.547Z,33.17
2019-01-19T18:39:20.767Z,33.70
2019-01-19T18:42:04.040Z,34.53
2019-01-19T18:44:48.917Z,32.50
2019-01-19T18:47:31.829Z,33.20
2019-01-19T18:50:15.024Z,31.20
2019-01-19T18:52:57.873Z,35.60
2019-01-19T18:55:40.591Z,35.60
2019-01-19T18:58:23.176Z,35.53
2019-01-19T19:01:05.895Z,37.87
2019-01-19T19:03:49.310Z,37.25
2019-01-19T19:06:31.970Z,42.03
2019-01-19T19:09:15.435Z,37.47
2019-01-19T19:11:58.870Z,39.17
2019-01-19T19:14:41.982Z,38.67
2019-01-19T19:17:27.089Z,39.03
2019-01-19T19:20:13.760Z,38.37
2019-01-19T19:22:57.429Z,41.60
2019-01-19T19:25:41.231Z,38.30
2019-01-19T19:28:26.025Z,44.27
2019-01-19T19:31:08.960Z,40.23
2019-01-19T19:33:52.703Z,44.53
2019-01-19T19:36:35.398Z,46.37
2019-01-19T19:39:21.762Z,40.53
2019-01-19T19:42:05.335Z,44.67
2019-01-19T19:44:48.311Z,41.57
2019-01-19T19:47:31.567Z,45.90
2019-01-19T19:50:14.508Z,39.00
2019-01-19T19:52:57.162Z,38.80
2019-01-19T19:55:41.814Z,42.20
2019-01-19T19:58:28.659Z,53.30
2019-01-19T20:01:13.298Z,63.67
2019-01-19T20:03:56.810Z,35.73
2019-01-19T20:06:40.180Z,47.33
2019-01-19T20:09:24.092Z,40.70
2019-01-19T20:12:07.921Z,46.87
2019-01-19T20:14:51.296Z,41.97
2019-01-19T20:17:34.399Z,47.30
2019-01-19T20:20:17.747Z,42.20
2019-01-19T20:23:02.475Z,37.83
2019-01-19T20:25:45.820Z,46.90
2019-01-19T20:28:28.449Z,41.67
2019-01-19T20:31:11.791Z,40.97
2019-01-19T20:33:57.024Z,44.57
2019-01-19T20:36:40.394Z,40.10
2019-01-19T20:39:23.101Z,44.17
2019-01-19T20:42:06.645Z,51.75
2019-01-19T20:44:49.716Z,47.80
2019-01-19T20:47:34.099Z,41.33
2019-01-19T20:50:19.577Z,46.73
2019-01-19T20:53:02.525Z,43.33
2019-01-19T20:55:46.576Z,44.83
2019-01-19T20:58:29.445Z,49.33
2019-01-19T21:01:12.557Z,47.60
2019-01-19T21:03:56.422Z,44.13
2019-01-19T21:06:39.068Z,48.43
2019-01-19T21:09:22.297Z,43.97
2019-01-19T21:12:04.924Z,46.23
2019-01-19T21:14:50.568Z,41.27
2019-01-19T21:17:33.659Z,40.07
2019-01-19T21:20:17.045Z,48.13
2019-01-19T21:23:00.242Z,48.67
2019-01-19T21:25:45.756Z,45.37
2019-01-19T21:28:29.021Z,46.93
2019-01-19T21:31:12.519Z,43.20
2019-01-19T21:33:57.483Z,58.63
2019-01-19T21:36:41.280Z,47.90
2019-01-19T21:39:23.997Z,49.33
2019-01-19T21:42:07.444Z,49.87
2019-01-19T21:44:50.604Z,51.23
2019-01-19T21:47:33.243Z,49.20
2019-01-19T21:50:18.385Z,49.40
2019-01-19T21:53:01.820Z,47.90
2019-01-19T21:55:44.987Z,50.17
2019-01-19T21:58:28.443Z,46.97
2019-01-19T22:01:13.915Z,50.60
2019-01-19T22:03:56.941Z,52.57
2019-01-19T22:09:30.585Z,56.58
2019-01-19T22:12:15.528Z,59.43
2019-01-19T22:14:58.881Z,54.47
2019-01-19T22:17:43.570Z,53.97
2019-01-19T22:20:26.413Z,51.03
2019-01-19T22:23:09.761Z,58.10
2019-01-19T22:25:53.244Z,61.42
2019-01-19T22:28:37.347Z,59.38
2019-01-19T22:31:20.731Z,56.87
2019-01-19T22:34:05.303Z,57.37
2019-01-19T22:36:49.254Z,51.53
2019-01-19T22:39:32.685Z,50.50
2019-01-19T22:42:15.710Z,57.15
2019-01-19T22:44:59.160Z,52.77
2019-01-19T22:47:42.901Z,51.23
2019-01-19T22:50:26.242Z,56.17
2019-01-19T22:53:09.132Z,56.27
2019-01-19T22:55:54.242Z,51.23
2019-01-19T22:58:38.074Z,49.97
2019-01-19T23:01:21.346Z,52.97
2019-01-19T23:04:04.191Z,62.03
2019-01-19T23:06:48.318Z,58.67
2019-01-19T23:09:31.189Z,55.73
2019-01-19T23:12:14.178Z,58.13
2019-01-19T23:14:57.337Z,53.23
2019-01-19T23:17:40.569Z,55.83
2019-01-19T23:20:24.066Z,59.98
2019-01-19T23:23:08.816Z,55.20
2019-01-19T23:25:52.352Z,61.43
2019-01-19T23:28:35.666Z,50.37
2019-01-19T23:31:18.826Z,55.73
2019-01-19T23:34:02.082Z,55.07
2019-01-19T23:36:44.935Z,49.47
2019-01-19T23:39:28.424Z,57.47
2019-01-19T23:42:11.439Z,55.93
2019-01-19T23:44:54.183Z,54.67
2019-01-19T23:47:36.849Z,52.77
2019-01-19T23:50:20.045Z,56.60
2019-01-19T23:53:03.532Z,53.80
2019-01-19T23:55:46.606Z,49.33
2019-01-19T23:58:29.359Z,62.73
